Time;durP1;ratioP1;P1;durP2;ratioP2;P2;SDS_P1;SDS_P2;PMS_P1;PMS_P2;Temp;Humidity;BMP_temperature;BMP_pressure;BME280_temperature;BME280_humidity;BME280_pressure;Samples;Min_cycle;Max_cycle;Signal;HPM_P1;HPM_P2
2022/04/19 00:05:05;;;;;;;48.85;23.45;;;;;;;3.56;65.80;98574.66;4052583;86;21003;-87
2022/04/19 00:11:09;;;;;;;54.25;24.27;;;;;;;3.46;66.45;98556.19;4036059;86;22051;-87
2022/04/19 00:17:11;;;;;;;55.92;23.32;;;;;;;3.45;66.35;98553.23;4057534;86;21055;-87
2022/04/19 00:23:16;;;;;;;50.50;22.60;;;;;;;3.46;67.76;98569.71;4062773;85;21043;-86
2022/04/19 00:29:38;;;;;;;49.73;23.57;;;;;;;3.51;67.04;98564.08;4063540;85;21022;-86
2022/04/19 00:35:44;;;;;;;;;;;;;;;3.40;67.98;98555.60;4054620;86;21541;-86
2022/04/19 00:41:49;;;;;;;44.08;21.15;;;;;;;3.45;67.63;98543.20;4067765;86;20128;-87
2022/04/19 00:47:55;;;;;;;47.13;21.85;;;;;;;3.48;67.83;98534.41;4024092;86;21043;-87
2022/04/19 00:53:59;;;;;;;49.10;21.15;;;;;;;3.55;67.46;98534.64;4049300;86;21585;-85
2022/04/19 01:00:08;;;;;;;42.73;20.23;;;;;;;3.55;67.43;98531.14;4065584;86;21106;-85
2022/04/19 01:06:12;;;;;;;47.10;22.48;;;;;;;3.43;67.68;98525.16;4076180;86;21133;-86
2022/04/19 01:18:36;;;;;;;41.35;19.85;;;;;;;3.51;67.35;98512.08;4075440;85;21169;-86
2022/04/19 01:24:43;;;;;;;36.70;16.12;;;;;;;3.62;67.91;98515.13;4072178;86;21177;-86
2022/04/19 01:30:52;;;;;;;35.98;16.65;;;;;;;3.57;68.03;98505.30;4059245;86;21019;-86
2022/04/19 01:36:53;;;;;;;37.67;18.60;;;;;;;3.65;68.06;98490.09;4073001;86;21066;-86
2022/04/19 01:43:04;;;;;;;39.88;18.50;;;;;;;3.70;68.28;98484.41;4066668;86;21015;-86
2022/04/19 01:49:07;;;;;;;34.53;15.48;;;;;;;3.67;67.99;98476.42;4070919;86;21026;-87
2022/04/19 01:55:13;;;;;;;30.88;15.63;;;;;;;3.79;67.28;98468.27;4056458;86;21106;-86
2022/04/19 02:01:15;;;;;;;19.12;9.75;;;;;;;3.87;66.92;98467.92;4074369;86;21038;-86
2022/04/19 02:07:17;;;;;;;37.83;16.77;;;;;;;3.91;67.38;98476.37;4066026;86;21126;-86
2022/04/19 02:13:20;;;;;;;31.23;15.28;;;;;;;3.83;67.17;98480.00;4054570;86;20991;-86
2022/04/19 02:19:27;;;;;;;28.17;15.05;;;;;;;3.86;68.16;98471.75;4060613;86;21646;-86
2022/04/19 02:25:29;;;;;;;27.87;14.53;;;;;;;3.85;67.46;98475.04;4077402;86;21598;-87
2022/04/19 02:31:32;;;;;;;29.52;13.38;;;;;;;3.93;67.50;98476.80;3995309;88;21162;-87
2022/04/19 02:37:50;;;;;;;26.12;12.10;;;;;;;3.91;67.49;98463.39;4078648;86;21024;-85
2022/04/19 02:43:52;;;;;;;21.37;11.20;;;;;;;3.97;67.48;98466.87;4069416;86;21038;-86
2022/04/19 02:49:54;;;;;;;23.45;11.75;;;;;;;4.06;67.39;98479.69;4048099;86;21003;-86
2022/04/19 02:55:55;;;;;;;17.32;9.48;;;;;;;4.08;67.45;98475.28;4071742;86;21099;-86
2022/04/19 03:01:58;;;;;;;22.73;10.88;;;;;;;4.10;67.00;98482.50;4068964;86;21040;-86
2022/04/19 03:08:00;;;;;;;30.43;13.22;;;;;;;4.22;66.71;98483.80;4073542;86;21098;-86
2022/04/19 03:14:01;;;;;;;20.65;11.50;;;;;;;4.24;66.78;98495.89;4073143;86;21018;-87
2022/04/19 03:20:04;;;;;;;32.00;13.80;;;;;;;4.30;66.45;98488.28;4049381;86;21544;-86
2022/04/19 03:32:26;;;;;;;22.07;11.38;;;;;;;4.28;66.53;98499.47;4068958;86;21070;-86
2022/04/19 03:38:29;;;;;;;23.65;10.80;;;;;;;4.31;67.66;98491.20;4075477;86;21610;-86
2022/04/19 03:44:31;;;;;;;23.65;11.12;;;;;;;4.27;66.76;98497.91;4060423;85;21077;-87
2022/04/19 03:50:33;;;;;;;23.38;10.55;;;;;;;4.27;66.99;98493.84;4073204;85;21051;-85
2022/04/19 03:56:34;;;;;;;11.12;6.83;;;;;;;4.31;67.11;98485.23;4069555;86;21122;-86
2022/04/19 04:02:35;;;;;;;14.25;6.15;;;;;;;4.29;66.90;98488.08;4069246;86;21620;-85
2022/04/19 04:08:37;;;;;;;9.73;5.53;;;;;;;4.26;66.93;98493.60;4053164;86;21011;-85
2022/04/19 04:14:41;;;;;;;11.80;5.45;;;;;;;4.28;67.28;98497.31;4071336;86;21047;-86
2022/04/19 04:20:44;;;;;;;8.48;4.47;;;;;;;4.25;67.86;98497.45;4092609;85;21606;-85
2022/04/19 04:26:45;;;;;;;10.43;4.90;;;;;;;4.29;67.98;98490.78;4069214;86;21492;-86
2022/04/19 04:32:48;;;;;;;9.95;4.83;;;;;;;4.32;67.80;98491.45;4037897;86;21085;-86
2022/04/19 04:39:17;;;;;;;8.63;4.42;;;;;;;4.35;67.62;98484.75;4063133;85;21047;-86
2022/04/19 04:45:21;;;;;;;6.90;4.17;;;;;;;4.43;67.81;98491.94;4018689;86;21519;-86
2022/04/19 04:51:24;;;;;;;13.70;4.65;;;;;;;4.49;67.82;98489.22;4055259;86;21047;-87
2022/04/19 04:57:26;;;;;;;10.50;5.67;;;;;;;4.50;68.04;98483.21;4047476;86;34745;-87
2022/04/19 05:03:27;;;;;;;9.60;5.20;;;;;;;4.48;68.34;98479.49;4104153;86;21007;-87
2022/04/19 05:09:30;;;;;;;8.10;4.95;;;;;;;4.53;68.44;98480.60;4102381;86;21004;-87
2022/04/19 05:15:32;;;;;;;9.18;5.37;;;;;;;4.59;68.50;98485.98;4102475;85;21127;-86
2022/04/19 05:21:37;;;;;;;9.63;5.30;;;;;;;4.68;68.90;98477.70;4107899;87;20979;-87
2022/04/19 05:27:40;;;;;;;9.20;4.53;;;;;;;4.78;68.86;98482.59;4101536;86;21016;-87
2022/04/19 05:33:41;;;;;;;10.05;5.20;;;;;;;4.80;68.65;98480.33;4103256;86;21071;-86
2022/04/19 05:39:43;;;;;;;10.65;5.42;;;;;;;4.78;68.65;98469.83;4103406;85;21011;-88
2022/04/19 05:45:46;;;;;;;11.22;5.70;;;;;;;4.87;68.79;98464.80;4095442;85;21126;-87
2022/04/19 05:51:49;;;;;;;8.05;4.42;;;;;;;5.00;68.71;98459.48;4100738;85;21886;-87
2022/04/19 05:57:51;;;;;;;8.33;4.75;;;;;;;5.18;68.51;98454.73;4098832;85;20988;-87
2022/04/19 06:10:14;;;;;;;9.43;4.78;;;;;;;5.72;67.49;98458.83;4084577;85;20987;-86
2022/04/19 06:16:16;;;;;;;9.10;5.65;;;;;;;5.99;67.57;98448.38;4070810;85;21039;-87
2022/04/19 06:22:21;;;;;;;11.22;5.70;;;;;;;6.13;66.51;98443.23;4083455;85;21082;-87
2022/04/19 06:28:30;;;;;;;8.28;4.50;;;;;;;6.12;65.99;98447.87;4092448;87;21512;-86
2022/04/19 06:35:06;;;;;;;7.62;4.72;;;;;;;6.10;65.67;98448.81;4123887;84;21115;-87
2022/04/19 06:41:11;;;;;;;5.70;3.95;;;;;;;6.01;65.35;98452.30;4138735;84;21050;-87
2022/04/19 06:47:24;;;;;;;11.03;5.10;;;;;;;5.91;64.88;98455.61;4115719;85;21053;-86
2022/04/19 06:53:30;;;;;;;9.45;4.60;;;;;;;6.05;65.62;98455.89;4132099;84;21016;-87
2022/04/19 06:59:34;;;;;;;8.73;4.72;;;;;;;6.13;65.13;98463.61;4132180;84;21150;-86
2022/04/19 07:05:36;;;;;;;8.90;5.12;;;;;;;6.27;64.79;98470.68;4132702;84;21062;-86
2022/04/19 07:11:37;;;;;;;11.70;6.35;;;;;;;6.47;64.83;98460.59;4137176;84;21134;-87
2022/04/19 07:17:46;;;;;;;10.08;5.67;;;;;;;6.77;64.34;98465.58;4136487;84;21075;-87
2022/04/19 07:30:14;;;;;;;10.30;5.10;;;;;;;7.32;63.94;98470.39;4141543;84;21015;-87
2022/04/19 07:36:16;;;;;;;10.85;5.17;;;;;;;7.56;62.89;98465.30;4102569;85;21015;-87
2022/04/19 07:42:19;;;;;;;10.88;5.95;;;;;;;7.76;63.23;98474.95;4098147;85;21067;-86
2022/04/19 07:48:20;;;;;;;12.13;6.05;;;;;;;8.29;59.06;98470.76;4096712;85;21004;-86
2022/04/19 07:54:22;;;;;;;10.38;6.33;;;;;;;8.91;59.89;98461.69;4094534;85;21539;-85
2022/04/19 08:00:27;;;;;;;13.00;6.75;;;;;;;8.95;60.11;98470.68;4106537;85;20995;-86
2022/04/19 08:06:28;;;;;;;14.40;7.65;;;;;;;8.84;56.62;98471.16;4101467;85;22296;-86
2022/04/19 08:12:37;;;;;;;15.18;10.15;;;;;;;9.22;57.85;98472.86;4104476;86;20992;-85
2022/04/19 08:18:40;;;;;;;14.33;7.00;;;;;;;10.09;56.81;98478.72;4095037;85;21170;-86
2022/04/19 08:24:42;;;;;;;12.80;6.70;;;;;;;10.00;57.04;98481.00;4090060;86;21099;-86
2022/04/19 08:30:51;;;;;;;10.45;6.67;;;;;;;9.58;56.96;98481.52;4104064;85;20980;-86
2022/04/19 08:36:54;;;;;;;14.28;7.78;;;;;;;9.27;56.93;98481.31;4093664;86;21092;-86
2022/04/19 08:42:57;;;;;;;11.45;7.12;;;;;;;9.06;56.81;98488.73;4131123;85;22321;-87
2022/04/19 08:49:03;;;;;;;10.50;6.78;;;;;;;8.77;56.76;98496.43;4131674;85;21023;-86
2022/04/19 09:01:30;;;;;;;14.10;7.50;;;;;;;8.43;57.27;98500.92;4138761;84;21542;-87
2022/04/19 09:07:37;;;;;;;13.45;8.38;;;;;;;8.19;57.67;98507.61;4142296;86;21051;-86
2022/04/19 09:13:39;;;;;;;13.48;8.05;;;;;;;8.00;58.03;98505.05;4137718;84;21038;-88
2022/04/19 09:19:40;;;;;;;12.98;7.97;;;;;;;7.80;59.26;98512.55;4139964;84;21518;-87
2022/04/19 09:25:44;;;;;;;12.45;8.10;;;;;;;7.78;59.20;98518.94;4141137;85;21090;-87
2022/04/19 09:31:52;;;;;;;10.23;7.50;;;;;;;8.10;59.68;98522.11;4111678;84;21166;-87
2022/04/19 09:37:55;;;;;;;11.48;7.67;;;;;;;8.81;59.98;98517.73;4132972;84;21038;-88
2022/04/19 09:44:12;;;;;;;13.62;7.75;;;;;;;10.07;59.99;98507.61;4135221;84;21129;-88
2022/04/19 09:50:14;;;;;;;16.15;7.92;;;;;;;10.91;59.40;98518.31;4134051;84;21082;-87
2022/04/19 09:56:19;;;;;;;14.15;7.90;;;;;;;11.67;58.75;98519.34;4136163;84;21062;-88
2022/04/19 10:08:44;;;;;;;11.05;7.47;;;;;;;10.15;58.97;98529.16;4136396;84;21126;-86
2022/04/19 10:14:46;;;;;;;11.57;8.45;;;;;;;9.71;58.90;98532.55;4132865;84;22089;-85
2022/04/19 10:20:59;;;;;;;9.08;5.85;;;;;;;9.59;58.53;98549.27;4136363;84;21766;-87
2022/04/19 10:27:05;;;;;;;13.15;7.37;;;;;;;9.18;58.51;98545.00;4108617;85;21054;-88
2022/04/19 10:33:40;;;;;;;11.30;8.15;;;;;;;9.16;58.05;98555.53;4114118;84;21028;-87
2022/04/19 10:39:52;;;;;;;10.53;7.78;;;;;;;9.29;58.31;98546.67;4098125;85;21051;-89
2022/04/19 10:45:55;;;;;;;11.38;7.28;;;;;;;9.29;57.90;98546.67;4094654;85;21062;-87
2022/04/19 10:51:59;;;;;;;12.40;8.20;;;;;;;9.47;57.88;98550.33;4092285;85;20988;-87
2022/04/19 10:58:23;;;;;;;15.43;8.10;;;;;;;9.53;57.22;98558.98;4095278;85;21866;-87
2022/04/19 11:04:36;;;;;;;14.93;8.13;;;;;;;9.48;57.09;98563.41;4099580;85;20968;-88
2022/04/19 11:10:38;;;;;;;11.35;8.05;;;;;;;9.47;56.98;98567.32;4099936;85;21083;-86
2022/04/19 11:16:40;;;;;;;11.83;8.08;;;;;;;9.44;56.93;98563.98;4099197;85;21015;-88
2022/04/19 11:22:47;;;;;;;12.15;7.45;;;;;;;9.23;55.35;98569.23;4100771;85;21016;-88
2022/04/19 11:29:12;;;;;;;10.43;7.53;;;;;;;9.05;55.38;98573.16;4092050;85;21110;-87
2022/04/19 11:35:16;;;;;;;12.80;7.95;;;;;;;9.14;55.73;98566.83;4087327;85;21099;-85
2022/04/19 11:47:48;;;;;;;11.73;6.83;;;;;;;9.69;52.46;98573.73;4103454;85;21083;-87
2022/04/19 11:54:21;;;;;;;8.73;6.47;;;;;;;10.59;53.30;98570.80;4103055;87;21182;-85
2022/04/19 12:00:22;;;;;;;11.50;7.25;;;;;;;10.74;53.05;98562.83;4100509;85;21059;-87
2022/04/19 12:06:24;;;;;;;11.20;8.48;;;;;;;10.72;53.00;98565.77;4093146;85;21039;-86
2022/04/19 12:12:25;;;;;;;10.53;7.80;;;;;;;10.63;51.73;98562.00;4097317;86;21059;-87
2022/04/19 12:18:32;;;;;;;16.97;7.95;;;;;;;10.31;52.16;98564.41;4096746;85;21075;-87
2022/04/19 12:24:40;;;;;;;10.65;7.35;;;;;;;10.26;51.02;98561.45;4086790;86;21027;-87
2022/04/19 12:30:48;;;;;;;10.58;7.42;;;;;;;10.00;51.60;98560.87;4068649;85;21103;-86
2022/04/19 12:36:50;;;;;;;11.85;8.10;;;;;;;9.91;51.58;98561.80;4121954;85;21059;-87
2022/04/19 12:42:52;;;;;;;12.23;7.62;;;;;;;10.06;51.56;98556.03;4134651;85;21038;-87
2022/04/19 12:48:53;;;;;;;10.88;8.03;;;;;;;10.30;51.24;98554.06;4137232;85;21049;-87
2022/04/19 12:54:59;;;;;;;10.23;7.37;;;;;;;10.38;50.44;98552.91;4144189;85;21980;-87
2022/04/19 13:01:01;;;;;;;11.00;7.70;;;;;;;10.84;50.30;98554.45;4116540;84;20999;-86
2022/04/19 13:13:26;;;;;;;10.55;7.42;;;;;;;11.55;48.29;98554.78;4136655;84;22275;-86
2022/04/19 13:19:27;;;;;;;9.98;6.97;;;;;;;11.85;49.14;98543.43;4136443;84;21023;-86
2022/04/19 13:25:29;;;;;;;9.83;6.60;;;;;;;12.18;48.94;98551.21;4136275;85;21051;-87
2022/04/19 13:31:31;;;;;;;11.80;7.80;;;;;;;12.49;47.91;98548.38;4136458;84;21074;-86
2022/04/19 13:43:52;;;;;;;8.40;5.90;;;;;;;12.65;45.47;98550.67;4138363;84;21650;-86
2022/04/19 13:49:54;;;;;;;8.98;6.47;;;;;;;11.60;45.32;98550.28;4134332;85;20995;-87
2022/04/19 13:55:58;;;;;;;12.65;6.75;;;;;;;11.77;45.19;98544.61;4140833;85;21074;-87
2022/04/19 14:01:59;;;;;;;12.28;7.28;;;;;;;11.97;45.10;98554.78;4138761;85;21023;-87
2022/04/19 14:08:00;;;;;;;9.88;6.97;;;;;;;11.28;45.94;98563.16;4138584;84;22101;-87
2022/04/19 14:14:06;;;;;;;7.85;6.30;;;;;;;10.77;46.15;98564.80;4141891;84;21059;-87
2022/04/19 14:20:09;;;;;;;8.50;6.58;;;;;;;10.35;46.20;98570.69;4138283;84;22297;-87
2022/04/19 14:26:10;;;;;;;8.95;7.33;;;;;;;10.04;46.13;98572.64;4137967;84;21027;-86
2022/04/19 14:38:33;;;;;;;11.05;7.33;;;;;;;10.09;46.40;98582.65;4137186;84;21138;-87
2022/04/19 14:44:35;;;;;;;10.68;6.62;;;;;;;10.22;46.42;98588.02;4139437;84;21960;-86
2022/04/19 14:57:00;;;;;;;10.35;7.33;;;;;;;10.41;46.01;98585.58;4133905;84;21038;-85
2022/04/19 15:03:03;;;;;;;11.53;7.85;;;;;;;10.67;46.18;98590.77;4137627;85;21111;-85
2022/04/19 15:09:08;;;;;;;9.98;7.62;;;;;;;11.00;46.00;98591.30;4139724;85;21997;-85
2022/04/19 15:15:09;;;;;;;9.65;6.50;;;;;;;11.21;45.09;98590.56;4141697;85;21007;-87
2022/04/19 15:21:10;;;;;;;10.50;6.55;;;;;;;10.71;45.73;98593.72;4141426;84;21011;-86
2022/04/19 15:27:12;;;;;;;14.85;8.53;;;;;;;10.43;45.95;98599.06;4133579;84;21094;-86
2022/04/19 15:33:13;;;;;;;14.03;8.93;;;;;;;10.26;46.09;98603.06;4139452;85;21420;-86
2022/04/19 15:39:16;;;;;;;10.45;7.47;;;;;;;9.97;46.33;98608.92;4101618;85;21043;-86
2022/04/19 15:45:18;;;;;;;11.55;7.70;;;;;;;9.63;46.48;98608.84;4099258;85;21986;-87
2022/04/19 15:51:19;;;;;;;9.60;7.12;;;;;;;9.39;46.69;98606.66;4100204;85;21705;-87
2022/04/19 15:57:34;;;;;;;12.82;8.75;;;;;;;9.30;46.82;98611.05;4100930;86;21028;-85
2022/04/19 16:03:36;;;;;;;20.57;11.25;;;;;;;9.28;46.91;98609.30;4103921;86;21057;-87
2022/04/19 16:09:37;;;;;;;15.32;9.33;;;;;;;9.32;47.11;98616.14;4135697;82;21109;-88
2022/04/19 16:15:39;;;;;;;11.90;7.45;;;;;;;9.38;47.32;98616.80;4142092;85;20991;-87
2022/04/19 16:28:00;;;;;;;18.12;7.70;;;;;;;9.10;47.70;98622.54;4187006;83;21076;-86
2022/04/19 16:34:04;;;;;;;11.85;7.33;;;;;;;9.15;47.80;98623.00;4165182;84;21017;-86
2022/04/19 16:40:06;;;;;;;16.93;11.25;;;;;;;9.15;47.91;98630.41;4129361;84;21015;-86
2022/04/19 16:46:07;;;;;;;25.80;12.07;;;;;;;9.09;47.94;98641.45;4164758;83;21050;-86
2022/04/19 16:52:09;;;;;;;13.58;7.97;;;;;;;8.95;48.11;98654.95;4116238;85;21023;-87
2022/04/19 16:58:10;;;;;;;11.10;7.40;;;;;;;8.79;48.15;98651.05;4128019;85;21055;-86
2022/04/19 17:04:12;;;;;;;15.48;8.73;;;;;;;8.65;48.16;98664.52;4122143;85;21541;-86
2022/04/19 17:10:13;;;;;;;14.58;8.80;;;;;;;8.46;48.26;98667.36;4125849;85;21132;-85
2022/04/19 17:16:14;;;;;;;15.72;8.60;;;;;;;8.23;48.37;98678.12;4119788;85;21985;-86
2022/04/19 17:22:16;;;;;;;48.87;20.00;;;;;;;7.98;48.50;98679.07;4134164;85;21107;-86
2022/04/19 17:28:17;;;;;;;29.23;14.38;;;;;;;7.75;48.68;98689.97;4158867;85;21089;-86
2022/04/19 17:34:36;;;;;;;13.53;8.88;;;;;;;7.51;48.92;98696.34;4138165;85;21015;-86
2022/04/19 17:40:37;;;;;;;19.12;9.55;;;;;;;7.31;49.28;98711.15;4142298;84;21086;-86
2022/04/19 17:46:42;;;;;;;22.73;8.80;;;;;;;7.08;49.72;98728.77;4139795;85;21595;-86
2022/04/19 17:59:23;;;;;;;18.75;9.03;;;;;;;6.76;50.47;98730.61;4118975;85;21055;-86
2022/04/19 18:05:24;;;;;;;15.85;8.20;;;;;;;6.53;50.88;98744.08;4127992;85;21536;-86
2022/04/19 18:12:00;;;;;;;14.35;8.60;;;;;;;6.32;51.27;98750.40;4176607;84;21122;-86
2022/04/19 18:18:02;;;;;;;19.80;11.33;;;;;;;6.12;51.66;98756.31;4184108;83;21570;-86
2022/04/19 18:30:26;;;;;;;31.62;14.98;;;;;;;5.65;52.36;98772.34;4145519;84;21710;-86
2022/04/19 18:36:28;;;;;;;27.42;14.83;;;;;;;5.42;53.05;98778.11;4022000;84;10000278;-86
2022/04/19 18:42:31;;;;;;;23.77;11.95;;;;;;;5.29;53.54;98788.78;4152883;84;21130;-85
2022/04/19 18:48:33;;;;;;;21.05;11.95;;;;;;;5.09;54.00;98789.17;4169614;84;21024;-86
2022/04/19 18:54:43;;;;;;;32.98;19.23;;;;;;;4.68;54.21;98797.64;4196603;84;20993;-85
2022/04/19 19:00:53;;;;;;;35.08;19.37;;;;;;;4.42;55.24;98802.05;4161879;84;21031;-85
2022/04/19 19:13:58;;;;;;;52.25;25.30;;;;;;;4.18;56.57;98804.73;4189139;84;21942;-85
2022/04/19 19:20:00;;;;;;;39.60;21.40;;;;;;;3.96;57.16;98815.21;4220488;84;21852;-85
2022/04/19 19:26:02;;;;;;;30.32;17.10;;;;;;;3.77;57.77;98823.06;4169448;83;21067;-85
2022/04/19 19:32:04;;;;;;;27.42;15.30;;;;;;;3.61;58.34;98826.16;4150666;84;21046;-85
2022/04/19 19:38:07;;;;;;;29.30;17.17;;;;;;;3.42;58.63;98833.97;4128784;84;21030;-85
2022/04/19 19:44:08;;;;;;;28.30;17.17;;;;;;;3.29;59.17;98832.34;4137699;84;21026;-85
2022/04/19 19:50:12;;;;;;;39.15;20.70;;;;;;;3.19;59.94;98830.25;4120010;84;21048;-85
2022/04/19 19:56:13;;;;;;;44.35;21.37;;;;;;;2.96;60.09;98841.16;4131975;84;20997;-86
2022/04/19 20:02:17;;;;;;;38.55;22.10;;;;;;;2.76;60.76;98847.34;4137843;84;21018;-85
2022/04/19 20:08:27;;;;;;;37.15;21.48;;;;;;;2.63;60.74;98845.66;4135218;85;21075;-85
2022/04/19 20:14:29;;;;;;;43.38;24.00;;;;;;;2.46;61.28;98849.80;4141866;84;21043;-85
2022/04/19 20:20:31;;;;;;;39.35;23.62;;;;;;;2.30;61.55;98851.45;4150894;83;20987;-86
2022/04/19 20:26:33;;;;;;;54.93;26.12;;;;;;;2.19;62.15;98848.10;4107274;84;21472;-86
2022/04/19 20:32:35;;;;;;;44.25;21.90;;;;;;;2.08;62.69;98861.17;4128598;83;21058;-85
2022/04/19 20:38:36;;;;;;;45.85;24.27;;;;;;;1.99;62.22;98865.78;4195000;83;21070;-85
2022/04/19 20:44:38;;;;;;;64.25;29.60;;;;;;;1.80;63.93;98864.56;4203182;83;21575;-85
2022/04/19 20:50:41;;;;;;;80.97;33.78;;;;;;;1.74;64.10;98872.02;4199095;83;21184;-85
2022/04/19 20:56:42;;;;;;;57.05;27.20;;;;;;;1.63;64.75;98868.64;4151210;83;21015;-85
2022/04/19 21:02:43;;;;;;;54.93;27.52;;;;;;;1.65;65.51;98877.99;4201382;83;22293;-85
2022/04/19 21:08:45;;;;;;;84.37;33.45;;;;;;;1.51;64.81;98882.77;4199578;83;21090;-85
2022/04/19 21:14:47;;;;;;;75.47;34.55;;;;;;;1.54;65.83;98882.13;4135700;84;21015;-85
2022/04/19 21:20:48;;;;;;;68.02;31.93;;;;;;;1.56;66.32;98882.61;4150543;85;20987;-85
2022/04/19 21:26:52;;;;;;;57.10;28.45;;;;;;;1.56;66.73;98882.61;4114620;85;21070;-85
2022/04/19 21:32:55;;;;;;;50.03;26.15;;;;;;;1.56;67.16;98883.41;4101291;85;20979;-85
2022/04/19 21:38:58;;;;;;;61.75;28.77;;;;;;;1.63;67.51;98889.11;4091897;86;21039;-85
2022/04/19 21:45:00;;;;;;;57.30;27.50;;;;;;;1.70;68.07;98880.53;4093199;86;21900;-85
2022/04/19 21:51:03;;;;;;;47.80;23.07;;;;;;;1.76;68.76;98875.20;4087964;86;21048;-85
2022/04/19 21:57:06;;;;;;;46.83;23.50;;;;;;;1.81;69.34;98880.98;4114214;85;21482;-85
2022/04/19 22:03:08;;;;;;;49.38;23.12;;;;;;;1.79;69.38;98879.95;4085873;86;21045;-85
2022/04/19 22:09:09;;;;;;;50.65;23.85;;;;;;;1.73;69.33;98884.48;4083022;86;21127;-85
2022/04/19 22:15:11;;;;;;;51.42;24.95;;;;;;;1.61;69.31;98887.27;4127986;85;21059;-84
2022/04/19 22:21:12;;;;;;;59.25;30.17;;;;;;;1.66;69.83;98879.57;4149804;84;21094;-86
2022/04/19 22:27:13;;;;;;;62.45;27.82;;;;;;;1.63;69.54;98884.83;4155072;84;21539;-86
2022/04/19 22:33:16;;;;;;;67.20;27.52;;;;;;;1.63;70.11;98883.71;4154262;84;21034;-86
2022/04/19 22:39:17;;;;;;;74.67;33.18;;;;;;;1.63;70.79;98891.00;4159383;84;21067;-86
2022/04/19 22:45:19;;;;;;;60.38;28.75;;;;;;;1.64;70.42;98885.86;4158813;84;21042;-86
2022/04/19 22:51:26;;;;;;;64.72;30.08;;;;;;;1.57;70.46;98885.53;4157994;84;21082;-86
2022/04/19 22:57:28;;;;;;;75.35;34.75;;;;;;;1.63;71.21;98891.80;4145350;84;21598;-86
2022/04/19 23:03:29;;;;;;;95.77;39.70;;;;;;;1.56;70.92;98886.66;4154063;84;21543;-86
2022/04/19 23:09:30;;;;;;;88.67;37.03;;;;;;;1.32;70.87;98883.09;4151725;84;21083;-85
2022/04/19 23:15:32;;;;;;;105.43;43.20;;;;;;;1.24;71.91;98881.17;4137473;84;21113;-86
2022/04/19 23:21:33;;;;;;;127.15;47.62;;;;;;;1.24;71.78;98880.37;4134191;85;22078;-85
2022/04/19 23:27:53;;;;;;;101.90;41.35;;;;;;;1.03;71.41;98869.44;4192122;84;21039;-86
2022/04/19 23:33:56;;;;;;;98.10;40.40;;;;;;;0.80;72.16;98864.48;4134426;84;21063;-85
2022/04/19 23:39:58;;;;;;;100.38;42.17;;;;;;;0.70;72.37;98855.34;4132669;85;21031;-86
2022/04/19 23:46:00;;;;;;;85.53;35.15;;;;;;;0.67;72.34;98861.36;4127954;84;21098;-86
2022/04/19 23:52:01;;;;;;;97.95;40.65;;;;;;;0.27;71.34;98842.31;4131362;84;21606;-85
